sensor_id;sensor_type;location;lat;lon;timestamp;temperature;humidity
45491;DHT22;31237;45.586;13.782;2023-01-15T00:02:09;7.40;81.50
45491;DHT22;31237;45.586;13.782;2023-01-15T00:04:37;7.40;81.40
45491;DHT22;31237;45.586;13.782;2023-01-15T00:07:02;7.40;81.40
45491;DHT22;31237;45.586;13.782;2023-01-15T00:09:28;7.50;81.40
45491;DHT22;31237;45.586;13.782;2023-01-15T00:11:54;7.50;81.30
45491;DHT22;31237;45.586;13.782;2023-01-15T00:14:20;7.60;81.30
45491;DHT22;31237;45.586;13.782;2023-01-15T00:16:50;7.60;81.30
45491;DHT22;31237;45.586;13.782;2023-01-15T00:19:16;7.60;81.30
45491;DHT22;31237;45.586;13.782;2023-01-15T00:21:42;7.60;81.20
45491;DHT22;31237;45.586;13.782;2023-01-15T00:24:08;7.60;81.20
45491;DHT22;31237;45.586;13.782;2023-01-15T00:26:52;7.60;81.20
45491;DHT22;31237;45.586;13.782;2023-01-15T00:29:47;7.60;81.10
45491;DHT22;31237;45.586;13.782;2023-01-15T00:32:13;7.60;81.10
45491;DHT22;31237;45.586;13.782;2023-01-15T00:34:38;7.60;81.10
45491;DHT22;31237;45.586;13.782;2023-01-15T00:37:04;7.50;81.10
45491;DHT22;31237;45.586;13.782;2023-01-15T00:39:30;7.50;81.10
45491;DHT22;31237;45.586;13.782;2023-01-15T00:41:55;7.50;81.10
45491;DHT22;31237;45.586;13.782;2023-01-15T00:44:23;7.50;81.00
45491;DHT22;31237;45.586;13.782;2023-01-15T00:46:48;7.50;81.10
45491;DHT22;31237;45.586;13.782;2023-01-15T00:49:15;7.50;81.10
45491;DHT22;31237;45.586;13.782;2023-01-15T00:51:40;7.50;81.10
45491;DHT22;31237;45.586;13.782;2023-01-15T00:54:06;7.50;81.10
45491;DHT22;31237;45.586;13.782;2023-01-15T00:56:32;7.50;81.10
45491;DHT22;31237;45.586;13.782;2023-01-15T00:59:00;7.50;81.70
45491;DHT22;31237;45.586;13.782;2023-01-15T01:01:26;7.50;81.10
45491;DHT22;31237;45.586;13.782;2023-01-15T01:03:52;7.50;81.20
45491;DHT22;31237;45.586;13.782;2023-01-15T01:06:19;7.50;81.20
45491;DHT22;31237;45.586;13.782;2023-01-15T01:08:46;7.50;81.20
45491;DHT22;31237;45.586;13.782;2023-01-15T01:11:14;7.50;81.20
45491;DHT22;31237;45.586;13.782;2023-01-15T01:13:40;7.40;81.30
45491;DHT22;31237;45.586;13.782;2023-01-15T01:16:29;7.40;81.30
45491;DHT22;31237;45.586;13.782;2023-01-15T01:18:57;7.40;81.30
45491;DHT22;31237;45.586;13.782;2023-01-15T01:21:24;7.30;81.40
45491;DHT22;31237;45.586;13.782;2023-01-15T01:23:50;7.30;81.50
45491;DHT22;31237;45.586;13.782;2023-01-15T01:26:16;7.30;81.50
45491;DHT22;31237;45.586;13.782;2023-01-15T01:28:42;7.30;81.70
45491;DHT22;31237;45.586;13.782;2023-01-15T01:31:08;7.20;81.70
45491;DHT22;31237;45.586;13.782;2023-01-15T01:33:35;7.20;81.80
45491;DHT22;31237;45.586;13.782;2023-01-15T01:36:00;7.20;81.90
45491;DHT22;31237;45.586;13.782;2023-01-15T01:38:26;7.20;82.00
45491;DHT22;31237;45.586;13.782;2023-01-15T01:40:52;7.10;82.00
45491;DHT22;31237;45.586;13.782;2023-01-15T01:43:20;7.10;82.20
45491;DHT22;31237;45.586;13.782;2023-01-15T01:45:46;7.10;82.40
45491;DHT22;31237;45.586;13.782;2023-01-15T01:48:12;7.10;82.50
45491;DHT22;31237;45.586;13.782;2023-01-15T01:50:40;7.10;82.70
45491;DHT22;31237;45.586;13.782;2023-01-15T01:53:13;7.10;82.60
45491;DHT22;31237;45.586;13.782;2023-01-15T01:55:41;7.10;82.70
45491;DHT22;31237;45.586;13.782;2023-01-15T01:58:09;7.10;82.70
45491;DHT22;31237;45.586;13.782;2023-01-15T02:00:37;7.10;82.70
45491;DHT22;31237;45.586;13.782;2023-01-15T02:03:08;7.10;82.70
45491;DHT22;31237;45.586;13.782;2023-01-15T02:05:45;7.20;82.90
45491;DHT22;31237;45.586;13.782;2023-01-15T02:08:11;7.20;82.90
45491;DHT22;31237;45.586;13.782;2023-01-15T02:10:37;7.20;82.90
45491;DHT22;31237;45.586;13.782;2023-01-15T02:13:07;7.20;82.80
45491;DHT22;31237;45.586;13.782;2023-01-15T02:15:39;7.20;82.80
45491;DHT22;31237;45.586;13.782;2023-01-15T02:18:15;7.20;83.00
45491;DHT22;31237;45.586;13.782;2023-01-15T02:26:19;7.30;83.40
45491;DHT22;31237;45.586;13.782;2023-01-15T02:28:53;7.30;84.20
45491;DHT22;31237;45.586;13.782;2023-01-15T02:31:26;7.30;83.60
45491;DHT22;31237;45.586;13.782;2023-01-15T02:36:22;7.40;83.90
45491;DHT22;31237;45.586;13.782;2023-01-15T02:38:50;7.40;84.00
45491;DHT22;31237;45.586;13.782;2023-01-15T02:41:22;7.50;84.20
45491;DHT22;31237;45.586;13.782;2023-01-15T02:43:54;7.50;84.30
45491;DHT22;31237;45.586;13.782;2023-01-15T02:46:25;7.50;84.60
45491;DHT22;31237;45.586;13.782;2023-01-15T02:48:53;7.60;84.80
45491;DHT22;31237;45.586;13.782;2023-01-15T02:51:26;7.60;84.90
45491;DHT22;31237;45.586;13.782;2023-01-15T02:53:56;7.60;85.00
45491;DHT22;31237;45.586;13.782;2023-01-15T02:56:26;7.60;85.50
45491;DHT22;31237;45.586;13.782;2023-01-15T02:58:56;7.60;84.80
45491;DHT22;31237;45.586;13.782;2023-01-15T03:01:27;7.70;85.50
45491;DHT22;31237;45.586;13.782;2023-01-15T03:04:01;7.70;85.00
45491;DHT22;31237;45.586;13.782;2023-01-15T03:09:06;7.80;85.70
45491;DHT22;31237;45.586;13.782;2023-01-15T03:11:38;7.80;85.90
45491;DHT22;31237;45.586;13.782;2023-01-15T03:14:29;7.80;85.40
45491;DHT22;31237;45.586;13.782;2023-01-15T03:17:00;7.80;85.50
45491;DHT22;31237;45.586;13.782;2023-01-15T03:19:47;7.90;85.90
45491;DHT22;31237;45.586;13.782;2023-01-15T03:24:50;7.90;85.90
45491;DHT22;31237;45.586;13.782;2023-01-15T03:27:18;7.90;85.40
45491;DHT22;31237;45.586;13.782;2023-01-15T03:29:47;7.90;85.30
45491;DHT22;31237;45.586;13.782;2023-01-15T03:32:15;8.00;85.40
45491;DHT22;31237;45.586;13.782;2023-01-15T03:34:45;8.00;85.40
45491;DHT22;31237;45.586;13.782;2023-01-15T03:37:11;8.00;85.50
45491;DHT22;31237;45.586;13.782;2023-01-15T03:39:38;8.00;85.40
45491;DHT22;31237;45.586;13.782;2023-01-15T03:47:42;8.10;85.60
45491;DHT22;31237;45.586;13.782;2023-01-15T03:50:41;8.10;85.80
45491;DHT22;31237;45.586;13.782;2023-01-15T03:53:18;8.10;85.70
45491;DHT22;31237;45.586;13.782;2023-01-15T04:00:58;8.20;85.70
45491;DHT22;31237;45.586;13.782;2023-01-15T04:03:26;8.20;85.60
45491;DHT22;31237;45.586;13.782;2023-01-15T04:05:55;8.10;85.50
45491;DHT22;31237;45.586;13.782;2023-01-15T04:08:22;8.10;85.50
45491;DHT22;31237;45.586;13.782;2023-01-15T04:10:53;8.20;85.70
45491;DHT22;31237;45.586;13.782;2023-01-15T04:13:19;8.20;85.70
45491;DHT22;31237;45.586;13.782;2023-01-15T04:15:45;8.20;85.70
45491;DHT22;31237;45.586;13.782;2023-01-15T04:18:11;8.20;85.70
45491;DHT22;31237;45.586;13.782;2023-01-15T04:20:36;8.20;85.80
45491;DHT22;31237;45.586;13.782;2023-01-15T04:23:02;8.20;85.80
45491;DHT22;31237;45.586;13.782;2023-01-15T04:25:28;8.20;85.60
45491;DHT22;31237;45.586;13.782;2023-01-15T04:27:54;8.20;85.60
45491;DHT22;31237;45.586;13.782;2023-01-15T04:30:20;8.20;85.80
45491;DHT22;31237;45.586;13.782;2023-01-15T04:32:49;8.10;86.40
45491;DHT22;31237;45.586;13.782;2023-01-15T04:35:16;8.10;85.90
45491;DHT22;31237;45.586;13.782;2023-01-15T04:37:42;8.10;86.00
45491;DHT22;31237;45.586;13.782;2023-01-15T04:40:09;8.10;86.00
45491;DHT22;31237;45.586;13.782;2023-01-15T04:42:54;8.10;86.10
45491;DHT22;31237;45.586;13.782;2023-01-15T04:45:39;8.10;86.80
45491;DHT22;31237;45.586;13.782;2023-01-15T04:48:05;8.10;86.50
45491;DHT22;31237;45.586;13.782;2023-01-15T04:50:30;8.10;86.40
45491;DHT22;31237;45.586;13.782;2023-01-15T04:52:56;8.10;86.70
45491;DHT22;31237;45.586;13.782;2023-01-15T04:55:22;8.10;86.60
45491;DHT22;31237;45.586;13.782;2023-01-15T04:57:50;8.10;86.70
45491;DHT22;31237;45.586;13.782;2023-01-15T05:00:16;8.10;87.10
45491;DHT22;31237;45.586;13.782;2023-01-15T05:02:42;8.10;87.20
45491;DHT22;31237;45.586;13.782;2023-01-15T05:05:08;8.10;87.10
45491;DHT22;31237;45.586;13.782;2023-01-15T05:07:34;8.20;87.50
45491;DHT22;31237;45.586;13.782;2023-01-15T05:10:00;8.20;87.60
45491;DHT22;31237;45.586;13.782;2023-01-15T05:12:26;8.20;87.90
45491;DHT22;31237;45.586;13.782;2023-01-15T05:14:51;8.30;87.80
45491;DHT22;31237;45.586;13.782;2023-01-15T05:17:17;8.20;88.00
45491;DHT22;31237;45.586;13.782;2023-01-15T05:19:43;8.30;87.90
45491;DHT22;31237;45.586;13.782;2023-01-15T05:22:09;8.30;88.30
45491;DHT22;31237;45.586;13.782;2023-01-15T05:24:35;8.30;88.40
45491;DHT22;31237;45.586;13.782;2023-01-15T05:27:00;8.30;88.10
45491;DHT22;31237;45.586;13.782;2023-01-15T05:29:27;8.30;88.30
45491;DHT22;31237;45.586;13.782;2023-01-15T05:31:53;8.30;88.20
45491;DHT22;31237;45.586;13.782;2023-01-15T05:34:18;8.40;88.90
45491;DHT22;31237;45.586;13.782;2023-01-15T05:36:44;8.40;88.60
45491;DHT22;31237;45.586;13.782;2023-01-15T05:39:10;8.40;88.40
45491;DHT22;31237;45.586;13.782;2023-01-15T05:41:36;8.40;88.80
45491;DHT22;31237;45.586;13.782;2023-01-15T05:44:24;8.40;88.70
45491;DHT22;31237;45.586;13.782;2023-01-15T05:46:52;8.40;89.00
45491;DHT22;31237;45.586;13.782;2023-01-15T05:49:21;8.40;89.70
45491;DHT22;31237;45.586;13.782;2023-01-15T05:51:48;8.30;89.60
45491;DHT22;31237;45.586;13.782;2023-01-15T05:54:16;8.30;89.50
45491;DHT22;31237;45.586;13.782;2023-01-15T05:56:43;8.30;89.70
45491;DHT22;31237;45.586;13.782;2023-01-15T05:59:11;8.40;89.80
45491;DHT22;31237;45.586;13.782;2023-01-15T06:01:37;8.30;89.60
45491;DHT22;31237;45.586;13.782;2023-01-15T06:04:04;8.30;89.70
45491;DHT22;31237;45.586;13.782;2023-01-15T06:06:31;8.30;89.90
45491;DHT22;31237;45.586;13.782;2023-01-15T06:08:57;8.30;90.10
45491;DHT22;31237;45.586;13.782;2023-01-15T06:11:23;8.30;90.00
45491;DHT22;31237;45.586;13.782;2023-01-15T06:13:49;8.20;90.00
45491;DHT22;31237;45.586;13.782;2023-01-15T06:16:15;8.20;90.40
45491;DHT22;31237;45.586;13.782;2023-01-15T06:18:41;8.20;90.20
45491;DHT22;31237;45.586;13.782;2023-01-15T06:21:09;8.20;90.40
45491;DHT22;31237;45.586;13.782;2023-01-15T06:23:35;8.20;90.50
45491;DHT22;31237;45.586;13.782;2023-01-15T06:26:02;8.20;90.70
45491;DHT22;31237;45.586;13.782;2023-01-15T06:28:28;8.20;90.60
45491;DHT22;31237;45.586;13.782;2023-01-15T06:30:54;8.20;90.80
45491;DHT22;31237;45.586;13.782;2023-01-15T06:33:20;8.20;90.80
45491;DHT22;31237;45.586;13.782;2023-01-15T06:35:46;8.10;90.70
45491;DHT22;31237;45.586;13.782;2023-01-15T06:38:12;8.20;90.80
45491;DHT22;31237;45.586;13.782;2023-01-15T06:40:37;8.10;90.80
45491;DHT22;31237;45.586;13.782;2023-01-15T06:43:04;8.10;90.90
45491;DHT22;31237;45.586;13.782;2023-01-15T06:45:48;8.10;91.00
45491;DHT22;31237;45.586;13.782;2023-01-15T06:48:32;8.10;91.10
45491;DHT22;31237;45.586;13.782;2023-01-15T06:50:59;8.10;91.10
45491;DHT22;31237;45.586;13.782;2023-01-15T06:53:24;8.10;91.20
45491;DHT22;31237;45.586;13.782;2023-01-15T06:55:50;8.10;91.30
45491;DHT22;31237;45.586;13.782;2023-01-15T06:58:16;8.20;91.40
45491;DHT22;31237;45.586;13.782;2023-01-15T07:00:42;8.20;91.50
45491;DHT22;31237;45.586;13.782;2023-01-15T07:03:09;8.20;91.60
45491;DHT22;31237;45.586;13.782;2023-01-15T07:05:39;8.20;91.60
45491;DHT22;31237;45.586;13.782;2023-01-15T07:08:05;8.20;91.70
45491;DHT22;31237;45.586;13.782;2023-01-15T07:10:33;8.30;91.90
45491;DHT22;31237;45.586;13.782;2023-01-15T07:12:59;8.30;91.80
45491;DHT22;31237;45.586;13.782;2023-01-15T07:15:25;8.30;91.80
45491;DHT22;31237;45.586;13.782;2023-01-15T07:17:55;8.30;91.90
45491;DHT22;31237;45.586;13.782;2023-01-15T07:20:21;8.30;91.90
45491;DHT22;31237;45.586;13.782;2023-01-15T07:22:50;8.40;92.20
45491;DHT22;31237;45.586;13.782;2023-01-15T07:25:16;8.40;92.00
45491;DHT22;31237;45.586;13.782;2023-01-15T07:27:44;8.50;92.30
45491;DHT22;31237;45.586;13.782;2023-01-15T07:30:10;8.50;92.20
45491;DHT22;31237;45.586;13.782;2023-01-15T07:32:36;8.50;92.20
45491;DHT22;31237;45.586;13.782;2023-01-15T07:35:02;8.60;92.20
45491;DHT22;31237;45.586;13.782;2023-01-15T07:37:28;8.60;92.20
45491;DHT22;31237;45.586;13.782;2023-01-15T07:39:53;8.60;92.20
45491;DHT22;31237;45.586;13.782;2023-01-15T07:42:19;8.60;92.30
45491;DHT22;31237;45.586;13.782;2023-01-15T07:45:05;8.60;92.30
45491;DHT22;31237;45.586;13.782;2023-01-15T07:47:49;8.70;92.60
45491;DHT22;31237;45.586;13.782;2023-01-15T07:50:34;8.70;92.40
45491;DHT22;31237;45.586;13.782;2023-01-15T07:53:01;8.70;92.40
45491;DHT22;31237;45.586;13.782;2023-01-15T07:55:26;8.70;92.40
45491;DHT22;31237;45.586;13.782;2023-01-15T07:57:52;8.70;92.60
45491;DHT22;31237;45.586;13.782;2023-01-15T08:00:21;8.70;92.50
45491;DHT22;31237;45.586;13.782;2023-01-15T08:02:47;8.70;92.70
45491;DHT22;31237;45.586;13.782;2023-01-15T08:05:15;8.70;92.70
45491;DHT22;31237;45.586;13.782;2023-01-15T08:07:42;8.70;92.70
45491;DHT22;31237;45.586;13.782;2023-01-15T08:10:09;8.70;92.70
45491;DHT22;31237;45.586;13.782;2023-01-15T08:12:35;8.70;92.70
45491;DHT22;31237;45.586;13.782;2023-01-15T08:15:19;8.70;92.70
45491;DHT22;31237;45.586;13.782;2023-01-15T08:17:49;8.80;92.80
45491;DHT22;31237;45.586;13.782;2023-01-15T08:20:17;8.80;92.70
45491;DHT22;31237;45.586;13.782;2023-01-15T08:22:44;8.80;92.90
45491;DHT22;31237;45.586;13.782;2023-01-15T08:25:12;8.80;93.00
45491;DHT22;31237;45.586;13.782;2023-01-15T08:27:38;8.80;92.80
45491;DHT22;31237;45.586;13.782;2023-01-15T08:30:06;8.90;93.00
45491;DHT22;31237;45.586;13.782;2023-01-15T08:32:32;8.90;93.10
45491;DHT22;31237;45.586;13.782;2023-01-15T08:34:57;9.00;93.20
45491;DHT22;31237;45.586;13.782;2023-01-15T08:37:23;9.00;93.20
45491;DHT22;31237;45.586;13.782;2023-01-15T08:39:49;9.10;93.40
45491;DHT22;31237;45.586;13.782;2023-01-15T08:42:20;9.20;93.20
45491;DHT22;31237;45.586;13.782;2023-01-15T08:44:46;9.30;93.10
45491;DHT22;31237;45.586;13.782;2023-01-15T08:47:13;9.30;93.00
45491;DHT22;31237;45.586;13.782;2023-01-15T08:49:39;9.40;93.10
45491;DHT22;31237;45.586;13.782;2023-01-15T08:52:06;9.40;93.10
45491;DHT22;31237;45.586;13.782;2023-01-15T08:54:34;9.50;93.00
45491;DHT22;31237;45.586;13.782;2023-01-15T08:57:00;9.60;92.90
45491;DHT22;31237;45.586;13.782;2023-01-15T08:59:26;9.60;93.00
45491;DHT22;31237;45.586;13.782;2023-01-15T09:01:52;9.70;92.90
45491;DHT22;31237;45.586;13.782;2023-01-15T09:04:20;9.70;92.90
45491;DHT22;31237;45.586;13.782;2023-01-15T09:06:47;9.80;92.80
45491;DHT22;31237;45.586;13.782;2023-01-15T09:09:13;9.90;92.80
45491;DHT22;31237;45.586;13.782;2023-01-15T09:11:40;9.90;92.70
45491;DHT22;31237;45.586;13.782;2023-01-15T09:14:07;9.90;92.90
45491;DHT22;31237;45.586;13.782;2023-01-15T09:16:34;9.90;92.70
45491;DHT22;31237;45.586;13.782;2023-01-15T09:19:00;10.00;92.60
45491;DHT22;31237;45.586;13.782;2023-01-15T09:21:26;10.00;92.70
45491;DHT22;31237;45.586;13.782;2023-01-15T09:23:52;10.00;92.60
45491;DHT22;31237;45.586;13.782;2023-01-15T09:26:30;10.10;92.70
45491;DHT22;31237;45.586;13.782;2023-01-15T09:28:57;10.10;92.70
45491;DHT22;31237;45.586;13.782;2023-01-15T09:31:24;10.10;92.70
45491;DHT22;31237;45.586;13.782;2023-01-15T09:33:50;10.10;92.70
45491;DHT22;31237;45.586;13.782;2023-01-15T09:36:45;10.20;92.70
45491;DHT22;31237;45.586;13.782;2023-01-15T09:39:11;10.20;92.60
45491;DHT22;31237;45.586;13.782;2023-01-15T09:53:52;10.40;92.40
45491;DHT22;31237;45.586;13.782;2023-01-15T09:56:22;10.50;92.40
45491;DHT22;31237;45.586;13.782;2023-01-15T09:58:49;10.60;92.40
45491;DHT22;31237;45.586;13.782;2023-01-15T10:01:18;10.60;92.30
45491;DHT22;31237;45.586;13.782;2023-01-15T10:06:48;10.70;92.20
45491;DHT22;31237;45.586;13.782;2023-01-15T10:09:20;10.70;92.20
45491;DHT22;31237;45.586;13.782;2023-01-15T10:11:52;10.70;92.20
45491;DHT22;31237;45.586;13.782;2023-01-15T10:17:42;10.80;92.00
45491;DHT22;31237;45.586;13.782;2023-01-15T10:25:16;10.90;92.00
45491;DHT22;31237;45.586;13.782;2023-01-15T10:27:46;10.90;92.00
45491;DHT22;31237;45.586;13.782;2023-01-15T10:33:11;11.00;91.80
45491;DHT22;31237;45.586;13.782;2023-01-15T10:41:29;11.00;91.70
45491;DHT22;31237;45.586;13.782;2023-01-15T10:44:16;11.00;91.70
45491;DHT22;31237;45.586;13.782;2023-01-15T10:46:52;11.00;91.70
45491;DHT22;31237;45.586;13.782;2023-01-15T10:49:20;11.00;91.60
45491;DHT22;31237;45.586;13.782;2023-01-15T10:51:57;11.00;91.60
45491;DHT22;31237;45.586;13.782;2023-01-15T10:54:44;10.90;91.60
45491;DHT22;31237;45.586;13.782;2023-01-15T10:57:16;10.90;91.60
45491;DHT22;31237;45.586;13.782;2023-01-15T10:59:46;10.90;91.60
45491;DHT22;31237;45.586;13.782;2023-01-15T11:05:05;10.80;91.50
45491;DHT22;31237;45.586;13.782;2023-01-15T11:07:38;10.80;91.50
45491;DHT22;31237;45.586;13.782;2023-01-15T11:10:07;10.80;91.60
45491;DHT22;31237;45.586;13.782;2023-01-15T11:12:38;10.80;91.60
45491;DHT22;31237;45.586;13.782;2023-01-15T11:15:24;10.70;91.50
45491;DHT22;31237;45.586;13.782;2023-01-15T11:18:20;10.70;91.60
45491;DHT22;31237;45.586;13.782;2023-01-15T11:21:11;10.70;91.60
45491;DHT22;31237;45.586;13.782;2023-01-15T11:23:37;10.70;91.60
45491;DHT22;31237;45.586;13.782;2023-01-15T11:26:03;10.70;91.60
45491;DHT22;31237;45.586;13.782;2023-01-15T11:31:09;10.70;91.60
45491;DHT22;31237;45.586;13.782;2023-01-15T11:33:36;10.70;91.50
45491;DHT22;31237;45.586;13.782;2023-01-15T11:36:21;10.70;91.50
45491;DHT22;31237;45.586;13.782;2023-01-15T11:38:48;10.60;91.60
45491;DHT22;31237;45.586;13.782;2023-01-15T11:41:21;10.60;91.60
45491;DHT22;31237;45.586;13.782;2023-01-15T11:43:57;10.60;91.60
45491;DHT22;31237;45.586;13.782;2023-01-15T11:46:44;10.70;91.60
45491;DHT22;31237;45.586;13.782;2023-01-15T11:49:29;10.60;91.60
45491;DHT22;31237;45.586;13.782;2023-01-15T11:52:17;10.60;91.70
45491;DHT22;31237;45.586;13.782;2023-01-15T11:54:45;10.50;91.70
45491;DHT22;31237;45.586;13.782;2023-01-15T11:57:26;10.60;91.80
45491;DHT22;31237;45.586;13.782;2023-01-15T11:59:52;10.50;91.80
45491;DHT22;31237;45.586;13.782;2023-01-15T12:02:26;10.50;91.90
45491;DHT22;31237;45.586;13.782;2023-01-15T12:04:58;10.50;92.00
45491;DHT22;31237;45.586;13.782;2023-01-15T12:07:25;10.50;92.00
45491;DHT22;31237;45.586;13.782;2023-01-15T12:17:52;10.50;92.10
45491;DHT22;31237;45.586;13.782;2023-01-15T12:29:00;10.50;92.40
45491;DHT22;31237;45.586;13.782;2023-01-15T12:31:40;10.50;92.10
45491;DHT22;31237;45.586;13.782;2023-01-15T12:36:48;10.50;92.20
45491;DHT22;31237;45.586;13.782;2023-01-15T12:42:06;10.50;92.30
45491;DHT22;31237;45.586;13.782;2023-01-15T12:45:08;10.50;92.30
45491;DHT22;31237;45.586;13.782;2023-01-15T12:53:23;10.50;92.30
45491;DHT22;31237;45.586;13.782;2023-01-15T13:01:12;10.50;92.30
45491;DHT22;31237;45.586;13.782;2023-01-15T13:03:51;10.50;92.30
45491;DHT22;31237;45.586;13.782;2023-01-15T13:06:18;10.50;92.20
45491;DHT22;31237;45.586;13.782;2023-01-15T13:09:04;10.50;92.20
45491;DHT22;31237;45.586;13.782;2023-01-15T13:11:33;10.50;92.20
45491;DHT22;31237;45.586;13.782;2023-01-15T13:13:59;10.50;92.20
45491;DHT22;31237;45.586;13.782;2023-01-15T13:21:59;10.40;92.20
45491;DHT22;31237;45.586;13.782;2023-01-15T13:27:33;10.40;92.20
45491;DHT22;31237;45.586;13.782;2023-01-15T13:30:14;10.40;92.20
45491;DHT22;31237;45.586;13.782;2023-01-15T13:32:54;10.40;92.20
45491;DHT22;31237;45.586;13.782;2023-01-15T13:35:37;10.30;92.20
45491;DHT22;31237;45.586;13.782;2023-01-15T13:38:14;10.30;92.20
45491;DHT22;31237;45.586;13.782;2023-01-15T13:40:42;10.30;92.30
45491;DHT22;31237;45.586;13.782;2023-01-15T13:43:33;10.20;92.40
45491;DHT22;31237;45.586;13.782;2023-01-15T13:46:01;10.20;92.50
45491;DHT22;31237;45.586;13.782;2023-01-15T13:50:56;10.20;92.70
45491;DHT22;31237;45.586;13.782;2023-01-15T13:53:35;10.20;92.80
45491;DHT22;31237;45.586;13.782;2023-01-15T13:56:08;10.20;92.80
45491;DHT22;31237;45.586;13.782;2023-01-15T13:58:39;10.20;93.00
45491;DHT22;31237;45.586;13.782;2023-01-15T14:04:05;10.10;93.00
45491;DHT22;31237;45.586;13.782;2023-01-15T14:09:05;10.10;93.40
45491;DHT22;31237;45.586;13.782;2023-01-15T14:11:43;10.10;93.30
45491;DHT22;31237;45.586;13.782;2023-01-15T14:18:11;10.10;93.40
45491;DHT22;31237;45.586;13.782;2023-01-15T14:20:48;10.00;93.30
45491;DHT22;31237;45.586;13.782;2023-01-15T14:34:28;9.90;93.60
45491;DHT22;31237;45.586;13.782;2023-01-15T14:37:00;9.90;93.60
45491;DHT22;31237;45.586;13.782;2023-01-15T14:39:45;9.90;93.80
45491;DHT22;31237;45.586;13.782;2023-01-15T14:47:52;9.80;94.00
45491;DHT22;31237;45.586;13.782;2023-01-15T14:52:59;9.80;94.10
45491;DHT22;31237;45.586;13.782;2023-01-15T14:55:26;9.80;94.20
45491;DHT22;31237;45.586;13.782;2023-01-15T14:58:01;9.80;94.20
45491;DHT22;31237;45.586;13.782;2023-01-15T15:00:35;9.80;94.30
45491;DHT22;31237;45.586;13.782;2023-01-15T15:03:25;9.80;94.20
45491;DHT22;31237;45.586;13.782;2023-01-15T15:05:53;9.80;94.30
45491;DHT22;31237;45.586;13.782;2023-01-15T15:08:19;9.80;94.20
45491;DHT22;31237;45.586;13.782;2023-01-15T15:10:52;9.80;94.40
45491;DHT22;31237;45.586;13.782;2023-01-15T15:18:44;9.70;94.40
45491;DHT22;31237;45.586;13.782;2023-01-15T15:21:17;9.70;94.60
45491;DHT22;31237;45.586;13.782;2023-01-15T15:23:53;9.70;94.60
45491;DHT22;31237;45.586;13.782;2023-01-15T15:26:34;9.70;94.60
45491;DHT22;31237;45.586;13.782;2023-01-15T15:29:15;9.70;94.80
45491;DHT22;31237;45.586;13.782;2023-01-15T15:32:02;9.70;94.70
45491;DHT22;31237;45.586;13.782;2023-01-15T15:37:03;9.70;94.80
45491;DHT22;31237;45.586;13.782;2023-01-15T15:39:41;9.70;94.80
45491;DHT22;31237;45.586;13.782;2023-01-15T15:51:21;9.60;94.80
45491;DHT22;31237;45.586;13.782;2023-01-15T15:53:47;9.70;94.90
45491;DHT22;31237;45.586;13.782;2023-01-15T15:56:13;9.60;95.00
45491;DHT22;31237;45.586;13.782;2023-01-15T15:58:40;9.60;95.00
45491;DHT22;31237;45.586;13.782;2023-01-15T16:01:10;9.60;94.90
45491;DHT22;31237;45.586;13.782;2023-01-15T16:03:47;9.60;95.10
45491;DHT22;31237;45.586;13.782;2023-01-15T16:06:19;9.60;95.00
45491;DHT22;31237;45.586;13.782;2023-01-15T16:08:52;9.60;95.10
45491;DHT22;31237;45.586;13.782;2023-01-15T16:11:19;9.60;95.10
45491;DHT22;31237;45.586;13.782;2023-01-15T16:13:51;9.60;95.10
45491;DHT22;31237;45.586;13.782;2023-01-15T16:16:18;9.60;95.20
45491;DHT22;31237;45.586;13.782;2023-01-15T16:18:48;9.60;95.20
45491;DHT22;31237;45.586;13.782;2023-01-15T16:21:33;9.60;95.30
45491;DHT22;31237;45.586;13.782;2023-01-15T16:24:08;9.60;95.30
45491;DHT22;31237;45.586;13.782;2023-01-15T16:27:12;9.60;95.60
45491;DHT22;31237;45.586;13.782;2023-01-15T16:29:37;9.60;95.50
45491;DHT22;31237;45.586;13.782;2023-01-15T16:32:13;9.60;95.50
45491;DHT22;31237;45.586;13.782;2023-01-15T16:34:42;9.60;95.50
45491;DHT22;31237;45.586;13.782;2023-01-15T16:37:22;9.60;95.60
45491;DHT22;31237;45.586;13.782;2023-01-15T16:39:49;9.60;95.50
45491;DHT22;31237;45.586;13.782;2023-01-15T16:44:54;9.60;95.70
45491;DHT22;31237;45.586;13.782;2023-01-15T16:47:27;9.60;95.70
45491;DHT22;31237;45.586;13.782;2023-01-15T16:52:52;9.60;95.70
45491;DHT22;31237;45.586;13.782;2023-01-15T17:00:51;9.60;96.00
45491;DHT22;31237;45.586;13.782;2023-01-15T17:03:20;9.70;96.00
45491;DHT22;31237;45.586;13.782;2023-01-15T17:05:48;9.70;95.90
45491;DHT22;31237;45.586;13.782;2023-01-15T17:08:18;9.70;96.00
45491;DHT22;31237;45.586;13.782;2023-01-15T17:11:27;9.70;95.90
45491;DHT22;31237;45.586;13.782;2023-01-15T17:14:29;9.70;96.00
45491;DHT22;31237;45.586;13.782;2023-01-15T17:19:40;9.70;96.10
45491;DHT22;31237;45.586;13.782;2023-01-15T17:22:14;9.70;96.20
45491;DHT22;31237;45.586;13.782;2023-01-15T17:24:49;9.70;96.30
45491;DHT22;31237;45.586;13.782;2023-01-15T17:27:16;9.70;96.30
45491;DHT22;31237;45.586;13.782;2023-01-15T17:29:41;9.70;96.30
45491;DHT22;31237;45.586;13.782;2023-01-15T17:32:17;9.70;96.40
45491;DHT22;31237;45.586;13.782;2023-01-15T17:34:44;9.70;96.50
45491;DHT22;31237;45.586;13.782;2023-01-15T17:37:10;9.70;96.60
45491;DHT22;31237;45.586;13.782;2023-01-15T17:39:36;9.70;96.70
45491;DHT22;31237;45.586;13.782;2023-01-15T17:42:16;9.70;96.70
45491;DHT22;31237;45.586;13.782;2023-01-15T17:44:43;9.70;96.60
45491;DHT22;31237;45.586;13.782;2023-01-15T17:47:09;9.70;96.50
45491;DHT22;31237;45.586;13.782;2023-01-15T17:49:35;9.80;96.80
45491;DHT22;31237;45.586;13.782;2023-01-15T17:52:01;9.80;96.70
45491;DHT22;31237;45.586;13.782;2023-01-15T17:54:28;9.70;96.70
45491;DHT22;31237;45.586;13.782;2023-01-15T17:57:13;9.70;96.70
45491;DHT22;31237;45.586;13.782;2023-01-15T17:59:57;9.70;97.00
45491;DHT22;31237;45.586;13.782;2023-01-15T18:02:41;9.70;96.90
45491;DHT22;31237;45.586;13.782;2023-01-15T18:05:27;9.70;97.00
45491;DHT22;31237;45.586;13.782;2023-01-15T18:07:58;9.70;97.10
45491;DHT22;31237;45.586;13.782;2023-01-15T18:10:27;9.70;97.10
45491;DHT22;31237;45.586;13.782;2023-01-15T18:12:52;9.70;97.20
45491;DHT22;31237;45.586;13.782;2023-01-15T18:15:18;9.70;97.20
45491;DHT22;31237;45.586;13.782;2023-01-15T18:17:45;9.70;97.20
45491;DHT22;31237;45.586;13.782;2023-01-15T18:20:11;9.70;96.90
45491;DHT22;31237;45.586;13.782;2023-01-15T18:22:37;9.70;96.80
45491;DHT22;31237;45.586;13.782;2023-01-15T18:25:04;9.70;96.90
45491;DHT22;31237;45.586;13.782;2023-01-15T18:27:31;9.70;97.00
45491;DHT22;31237;45.586;13.782;2023-01-15T18:29:57;9.70;97.10
45491;DHT22;31237;45.586;13.782;2023-01-15T18:32:27;9.60;97.10
45491;DHT22;31237;45.586;13.782;2023-01-15T18:34:53;9.60;97.30